Time;durP1;ratioP1;P1;durP2;ratioP2;P2;SDS_P1;SDS_P2;PMS_P1;PMS_P2;Temp;Humidity;BMP_temperature;BMP_pressure;BME280_temperature;BME280_humidity;BME280_pressure;Samples;Min_cycle;Max_cycle;Signal;HPM_P1;HPM_P2
2023/07/17 00:00:11;;;;;;;5.90;3.43;;;19.70;58.90;;;;;;5073614;28;20463;-56
2023/07/17 00:02:38;;;;;;;6.10;4.00;;;19.70;59.00;;;;;;5073229;28;20907;-57
2023/07/17 00:05:05;;;;;;;3.80;3.17;;;19.80;59.10;;;;;;5073077;28;20453;-55
2023/07/17 00:07:32;;;;;;;5.30;3.77;;;19.80;59.10;;;;;;5072620;28;20436;-57
2023/07/17 00:09:59;;;;;;;6.70;4.13;;;19.80;58.90;;;;;;5072549;28;20969;-56
2023/07/17 00:12:27;;;;;;;4.17;3.33;;;19.80;58.80;;;;;;5072993;28;20817;-57
2023/07/17 00:14:54;;;;;;;6.40;3.53;;;19.90;58.80;;;;;;5072575;28;20501;-57
2023/07/17 00:17:21;;;;;;;3.97;3.10;;;19.90;58.60;;;;;;5072815;28;20494;-57
2023/07/17 00:19:54;;;;;;;6.10;3.83;;;19.90;58.40;;;;;;5072466;28;21002;-57
2023/07/17 00:22:21;;;;;;;4.73;3.30;;;19.90;58.30;;;;;;5072879;28;20434;-57
2023/07/17 00:24:48;;;;;;;5.13;3.60;;;19.90;58.20;;;;;;5072689;28;20439;-57
2023/07/17 00:27:16;;;;;;;4.60;3.20;;;19.90;58.20;;;;;;5073868;28;20445;-55
2023/07/17 00:29:44;;;;;;;6.00;3.80;;;19.80;58.20;;;;;;5076671;28;20471;-57
2023/07/17 00:32:11;;;;;;;8.10;3.30;;;19.80;58.30;;;;;;5076459;28;21028;-56
2023/07/17 00:34:38;;;;;;;5.40;3.10;;;19.80;58.40;;;;;;5076788;28;20450;-57
2023/07/17 00:37:05;;;;;;;4.07;3.20;;;19.70;58.30;;;;;;5076568;28;20581;-56
2023/07/17 00:39:32;;;;;;;4.60;3.40;;;19.70;58.20;;;;;;5076704;28;20825;-57
2023/07/17 00:42:01;;;;;;;7.50;3.13;;;19.70;58.10;;;;;;5076879;28;20462;-57
2023/07/17 00:44:28;;;;;;;3.73;2.93;;;19.80;58.00;;;;;;5076612;28;20929;-58
2023/07/17 00:46:57;;;;;;;4.50;2.97;;;19.80;57.60;;;;;;5076797;28;20814;-57
2023/07/17 00:49:25;;;;;;;6.20;3.07;;;19.80;57.40;;;;;;5076112;28;20471;-57
2023/07/17 00:51:53;;;;;;;8.77;3.30;;;19.90;57.30;;;;;;5076788;28;20939;-57
2023/07/17 00:54:20;;;;;;;3.80;2.80;;;19.80;57.20;;;;;;5077114;28;20454;-57
2023/07/17 00:56:47;;;;;;;3.90;2.90;;;19.80;57.10;;;;;;5076254;28;20482;-57
2023/07/17 00:59:15;;;;;;;3.57;2.97;;;19.80;57.10;;;;;;5076073;28;20475;-57
2023/07/17 01:01:42;;;;;;;3.67;2.30;;;19.80;57.30;;;;;;5076719;28;20501;-57
2023/07/17 01:04:10;;;;;;;6.00;3.33;;;19.80;57.40;;;;;;5076301;28;20473;-57
2023/07/17 01:06:38;;;;;;;9.27;3.00;;;19.80;57.50;;;;;;5076317;28;20435;-57
2023/07/17 01:09:06;;;;;;;7.40;2.70;;;19.80;57.60;;;;;;5076283;28;20540;-57
2023/07/17 01:11:32;;;;;;;6.13;3.10;;;19.70;57.80;;;;;;5076300;28;20477;-57
2023/07/17 01:13:59;;;;;;;4.07;2.60;;;19.70;58.00;;;;;;5075907;28;20821;-55
2023/07/17 01:16:26;;;;;;;4.57;2.50;;;19.70;58.30;;;;;;5075618;28;20803;-56
2023/07/17 01:18:53;;;;;;;5.30;3.13;;;19.60;58.30;;;;;;5076002;28;20470;-58
2023/07/17 01:21:25;;;;;;;4.40;2.90;;;19.60;58.50;;;;;;5076115;28;20469;-57
2023/07/17 01:23:56;;;;;;;4.43;2.63;;;19.50;58.50;;;;;;5075631;28;20905;-56
2023/07/17 01:26:23;;;;;;;3.60;2.67;;;19.50;58.70;;;;;;5076029;28;20435;-57
2023/07/17 01:28:50;;;;;;;4.47;2.40;;;19.50;58.90;;;;;;5075451;28;20986;-57
2023/07/17 01:31:16;;;;;;;5.17;3.53;;;19.50;59.00;;;;;;5075862;28;20478;-56
2023/07/17 01:33:43;;;;;;;5.70;3.60;;;19.50;59.10;;;;;;5076315;28;20446;-57
2023/07/17 01:36:11;;;;;;;3.67;2.47;;;19.40;59.20;;;;;;5075817;28;20440;-56
2023/07/17 01:38:38;;;;;;;4.73;3.10;;;19.40;59.20;;;;;;5074573;28;20524;-57
2023/07/17 01:41:06;;;;;;;4.30;2.70;;;19.40;59.20;;;;;;5075863;28;20450;-57
2023/07/17 01:43:33;;;;;;;3.83;2.80;;;19.40;59.30;;;;;;5076320;28;20435;-56
2023/07/17 01:45:59;;;;;;;5.10;3.20;;;19.40;60.00;;;;;;5075372;28;20499;-58
2023/07/17 01:48:26;;;;;;;4.47;3.07;;;19.40;59.40;;;;;;5074990;28;20794;-57
2023/07/17 01:50:53;;;;;;;4.87;3.10;;;19.40;59.50;;;;;;5075668;28;20441;-58
2023/07/17 01:53:21;;;;;;;4.37;3.30;;;19.40;60.20;;;;;;5075815;28;20442;-58
2023/07/17 01:55:48;;;;;;;8.10;3.43;;;19.30;59.70;;;;;;5075113;28;20451;-57
2023/07/17 01:58:16;;;;;;;10.33;3.00;;;19.30;59.90;;;;;;5075038;28;20974;-56
2023/07/17 02:00:42;;;;;;;3.27;2.97;;;19.30;60.00;;;;;;5075669;28;20444;-57
2023/07/17 02:03:09;;;;;;;4.80;3.43;;;19.30;60.20;;;;;;5076100;28;20451;-56
2023/07/17 02:05:36;;;;;;;5.00;2.70;;;19.20;60.20;;;;;;5075193;28;20442;-56
2023/07/17 02:08:03;;;;;;;4.97;3.17;;;19.20;60.30;;;;;;5075133;28;20535;-58
2023/07/17 02:10:30;;;;;;;4.30;2.90;;;19.20;60.60;;;;;;5076075;28;20470;-56
2023/07/17 02:12:57;;;;;;;4.90;2.93;;;19.10;60.90;;;;;;5075127;28;20445;-57
2023/07/17 02:15:25;;;;;;;4.07;3.23;;;19.10;61.30;;;;;;5075582;28;20446;-56
2023/07/17 02:17:52;;;;;;;5.97;3.13;;;19.10;61.80;;;;;;5075174;28;20494;-56
2023/07/17 02:20:19;;;;;;;4.63;3.03;;;19.10;62.20;;;;;;5074767;28;20493;-57
2023/07/17 02:22:47;;;;;;;6.30;2.60;;;19.00;62.50;;;;;;5074908;28;20478;-57
2023/07/17 02:25:13;;;;;;;5.43;3.33;;;19.00;63.00;;;;;;5075288;28;20783;-55
2023/07/17 02:27:41;;;;;;;5.10;3.30;;;19.00;63.60;;;;;;5074566;28;20940;-58
2023/07/17 02:30:08;;;;;;;4.67;3.60;;;19.00;64.10;;;;;;5075123;28;20465;-57
2023/07/17 02:32:38;;;;;;;5.30;3.60;;;18.90;64.70;;;;;;5075184;28;20443;-58
2023/07/17 02:35:06;;;;;;;7.17;3.17;;;18.90;65.20;;;;;;5074755;28;20456;-57
2023/07/17 02:37:33;;;;;;;6.37;3.30;;;18.90;65.80;;;;;;5074666;28;20479;-57
2023/07/17 02:40:00;;;;;;;5.70;3.20;;;18.90;66.40;;;;;;5074428;28;20828;-57
2023/07/17 02:42:26;;;;;;;8.30;4.37;;;18.80;66.80;;;;;;5074233;28;20954;-56
2023/07/17 02:44:53;;;;;;;4.77;3.47;;;18.80;67.50;;;;;;5074435;28;20843;-57
2023/07/17 02:47:20;;;;;;;4.63;3.40;;;18.70;68.00;;;;;;5074224;28;20983;-57
2023/07/17 02:49:48;;;;;;;5.47;3.63;;;18.60;68.80;;;;;;5073712;28;21025;-57
2023/07/17 02:52:15;;;;;;;5.50;3.80;;;18.60;70.10;;;;;;5073569;28;20446;-57
2023/07/17 02:54:41;;;;;;;5.77;3.80;;;18.60;71.50;;;;;;5074241;28;20448;-57
2023/07/17 02:57:10;;;;;;;5.73;3.33;;;18.50;72.80;;;;;;5074024;28;20481;-57
2023/07/17 02:59:37;;;;;;;6.83;3.60;;;18.40;74.00;;;;;;5074001;28;20824;-58
2023/07/17 03:02:05;;;;;;;3.33;3.03;;;18.40;75.00;;;;;;5074185;28;20449;-57
2023/07/17 03:04:32;;;;;;;5.83;3.83;;;18.40;75.80;;;;;;5074066;28;20447;-58
2023/07/17 03:07:00;;;;;;;7.97;4.47;;;18.40;76.40;;;;;;5074066;28;20449;-57
2023/07/17 03:09:28;;;;;;;7.07;3.47;;;18.40;76.70;;;;;;5074032;28;20470;-57
2023/07/17 03:11:54;;;;;;;7.00;4.10;;;18.40;77.50;;;;;;5073610;28;21019;-58
2023/07/17 03:14:21;;;;;;;4.73;3.90;;;18.30;76.80;;;;;;5073869;28;20451;-57
2023/07/17 03:16:48;;;;;;;5.77;3.60;;;18.30;77.20;;;;;;5073499;28;20452;-57
2023/07/17 03:19:15;;;;;;;4.73;3.70;;;18.30;77.50;;;;;;5073607;28;20554;-56
2023/07/17 03:21:41;;;;;;;6.00;3.67;;;18.30;77.70;;;;;;5073813;28;20459;-58
2023/07/17 03:24:09;;;;;;;6.13;3.80;;;18.20;77.70;;;;;;5073572;28;20449;-52
2023/07/17 03:26:36;;;;;;;5.33;3.77;;;18.20;77.80;;;;;;5074111;28;20821;-58
2023/07/17 03:29:04;;;;;;;5.00;3.50;;;18.10;78.00;;;;;;5075245;28;20970;-58
2023/07/17 03:31:30;;;;;;;5.23;3.43;;;18.10;78.10;;;;;;5074683;28;20552;-58
2023/07/17 03:33:57;;;;;;;3.73;3.30;;;18.20;78.10;;;;;;5074391;28;20530;-56
2023/07/17 03:36:24;;;;;;;4.37;2.73;;;18.20;78.00;;;;;;5074985;28;20445;-57
2023/07/17 03:38:51;;;;;;;5.53;3.37;;;18.20;78.10;;;;;;5073193;28;20492;-57
2023/07/17 03:41:21;;;;;;;5.30;3.30;;;18.30;77.40;;;;;;5073419;28;20449;-58
2023/07/17 03:43:48;;;;;;;5.83;3.73;;;18.30;76.10;;;;;;5073325;28;20448;-57
2023/07/17 03:46:15;;;;;;;5.80;4.23;;;18.40;75.30;;;;;;5073119;28;20446;-57
2023/07/17 03:48:41;;;;;;;5.50;3.70;;;18.50;74.80;;;;;;5073004;28;20527;-58
2023/07/17 03:51:08;;;;;;;8.87;4.43;;;18.50;74.50;;;;;;5073107;28;20519;-57
2023/07/17 03:53:35;;;;;;;7.63;3.93;;;18.50;74.40;;;;;;5072456;28;20451;-57
2023/07/17 03:56:02;;;;;;;7.77;4.47;;;18.50;74.50;;;;;;5073179;28;20442;-57
2023/07/17 03:58:30;;;;;;;4.50;3.70;;;18.50;74.60;;;;;;5072827;28;20824;-58
2023/07/17 04:00:57;;;;;;;6.97;3.20;;;18.40;74.70;;;;;;5073063;28;20450;-57
2023/07/17 04:03:23;;;;;;;5.40;3.63;;;18.40;74.80;;;;;;5072443;28;20947;-57
2023/07/17 04:05:50;;;;;;;8.13;3.47;;;18.40;74.90;;;;;;5073331;28;20453;-56
2023/07/17 04:08:17;;;;;;;5.70;3.53;;;18.40;75.10;;;;;;5073744;28;20441;-57
2023/07/17 04:11:57;;;;;;;6.87;3.67;;;18.40;75.00;;;;;;5091049;28;20553;-57
2023/07/17 04:14:24;;;;;;;3.77;3.17;;;18.40;75.70;;;;;;5090679;28;20446;-57
2023/07/17 04:16:51;;;;;;;4.30;3.20;;;18.40;75.80;;;;;;5090792;28;20451;-57
2023/07/17 04:19:18;;;;;;;6.03;3.30;;;18.40;76.40;;;;;;5090263;28;21000;-58
2023/07/17 04:21:44;;;;;;;3.40;2.80;;;18.40;76.50;;;;;;5090732;28;20451;-58
2023/07/17 04:24:11;;;;;;;7.33;3.57;;;18.40;76.90;;;;;;5091109;28;20450;-57
2023/07/17 04:26:38;;;;;;;4.63;3.60;;;18.40;77.00;;;;;;5090426;28;20805;-57
2023/07/17 04:29:06;;;;;;;4.37;3.17;;;18.40;77.10;;;;;;5090091;28;20471;-56
2023/07/17 04:31:33;;;;;;;4.83;3.50;;;18.40;77.30;;;;;;5090252;28;20550;-58
2023/07/17 04:34:00;;;;;;;4.37;3.20;;;18.40;77.40;;;;;;5090808;28;20450;-57
2023/07/17 04:36:27;;;;;;;5.97;3.47;;;18.40;77.60;;;;;;5090336;28;20454;-58
2023/07/17 04:38:53;;;;;;;5.43;3.60;;;18.40;77.90;;;;;;5089690;28;20473;-58
2023/07/17 04:41:20;;;;;;;7.70;4.10;;;18.40;78.30;;;;;;5089821;28;20568;-56
2023/07/17 04:43:47;;;;;;;5.77;4.07;;;18.40;78.70;;;;;;5089893;28;20453;-56
2023/07/17 04:46:15;;;;;;;4.90;3.70;;;18.40;79.60;;;;;;5090403;28;20456;-57
2023/07/17 04:48:42;;;;;;;5.50;4.10;;;18.40;81.00;;;;;;5090177;28;20476;-56
2023/07/17 04:51:09;;;;;;;5.93;3.70;;;18.30;82.60;;;;;;5089629;28;20473;-56
2023/07/17 04:53:36;;;;;;;5.03;3.53;;;18.30;83.70;;;;;;5090105;28;20457;-56
2023/07/17 04:56:02;;;;;;;5.00;4.40;;;18.30;84.40;;;;;;5089615;28;20440;-56
2023/07/17 04:58:32;;;;;;;7.67;3.43;;;18.30;85.10;;;;;;5089747;28;20449;-56
2023/07/17 05:00:59;;;;;;;8.10;4.50;;;18.40;85.20;;;;;;5089537;28;20448;-56
2023/07/17 05:03:28;;;;;;;4.47;3.80;;;18.40;84.90;;;;;;5089551;28;20453;-56
2023/07/17 05:05:55;;;;;;;5.90;4.00;;;18.50;84.50;;;;;;5089544;28;20453;-57
2023/07/17 05:08:22;;;;;;;5.50;3.53;;;18.50;84.00;;;;;;5089249;28;20447;-57
2023/07/17 05:10:54;;;;;;;4.63;3.43;;;18.60;83.40;;;;;;5089150;28;20481;-57
2023/07/17 05:13:21;;;;;;;5.83;3.60;;;18.70;82.70;;;;;;5089510;28;20826;-57
2023/07/17 05:15:47;;;;;;;6.70;3.83;;;18.80;82.10;;;;;;5089378;28;20522;-57
2023/07/17 05:18:14;;;;;;;3.90;3.50;;;18.80;81.50;;;;;;5089300;28;20939;-59
2023/07/17 05:20:45;;;;;;;7.40;4.00;;;18.90;81.00;;;;;;5089717;28;20532;-58
2023/07/17 05:23:12;;;;;;;4.00;3.17;;;19.00;80.40;;;;;;5076387;28;20481;-57
2023/07/17 05:25:39;;;;;;;5.70;3.70;;;19.10;79.50;;;;;;5075627;28;20537;-58
2023/07/17 05:28:06;;;;;;;5.50;3.63;;;19.20;78.70;;;;;;5075401;28;20446;-58
2023/07/17 05:30:33;;;;;;;3.50;2.90;;;19.30;77.70;;;;;;5076258;28;20539;-57
2023/07/17 05:33:00;;;;;;;4.60;3.73;;;19.50;76.90;;;;;;5076619;28;20954;-56
2023/07/17 05:35:27;;;;;;;4.60;2.70;;;19.90;75.70;;;;;;5075984;28;20447;-55
2023/07/17 05:37:55;;;;;;;5.47;2.90;;;20.30;73.30;;;;;;5075699;28;20448;-55
2023/07/17 05:40:23;;;;;;;4.37;2.63;;;20.40;71.90;;;;;;5075294;28;20463;-55
2023/07/17 05:42:49;;;;;;;5.20;3.67;;;20.30;70.90;;;;;;5075098;28;20447;-55
2023/07/17 05:45:16;;;;;;;4.07;3.00;;;20.20;70.70;;;;;;5075370;28;20444;-57
2023/07/17 05:47:43;;;;;;;6.70;3.07;;;20.00;70.60;;;;;;5075360;28;20474;-56
2023/07/17 05:50:11;;;;;;;6.47;3.63;;;20.00;70.70;;;;;;5089764;22;20500;-55
2023/07/17 05:52:38;;;;;;;5.13;3.47;;;20.10;70.60;;;;;;5055492;28;20445;-56
2023/07/17 05:55:06;;;;;;;5.73;3.47;;;20.10;70.20;;;;;;5056938;28;20520;-55
2023/07/17 05:57:33;;;;;;;3.10;2.80;;;20.10;70.00;;;;;;5056767;28;20511;-56
2023/07/17 06:00:00;;;;;;;5.33;3.27;;;20.00;69.80;;;;;;5055457;28;20833;-56
2023/07/17 06:02:27;;;;;;;6.17;3.20;;;19.90;69.80;;;;;;5055641;28;20472;-56
2023/07/17 06:04:53;;;;;;;4.30;2.90;;;19.80;70.00;;;;;;5056369;28;20444;-55
2023/07/17 06:07:20;;;;;;;2.97;2.67;;;19.80;70.20;;;;;;5055740;28;20454;-55
2023/07/17 06:09:47;;;;;;;4.37;3.13;;;19.70;70.10;;;;;;5056005;28;20465;-56
2023/07/17 06:12:50;;;;;;;6.43;3.57;;;19.70;70.10;;;;;;5055467;28;20488;-57
2023/07/17 06:15:17;;;;;;;3.60;2.63;;;19.70;70.10;;;;;;5055414;28;20937;-56
2023/07/17 06:17:44;;;;;;;4.40;3.60;;;19.80;70.20;;;;;;5055244;28;20562;-54
2023/07/17 06:20:12;;;;;;;4.70;2.90;;;19.90;70.20;;;;;;5054431;28;20989;-55
2023/07/17 06:22:38;;;;;;;3.77;2.90;;;19.90;70.30;;;;;;5055034;28;20450;-55
2023/07/17 06:25:06;;;;;;;5.53;3.90;;;20.00;70.30;;;;;;5054922;28;20455;-55
2023/07/17 06:27:35;;;;;;;3.27;2.33;;;20.00;69.90;;;;;;5055129;28;20445;-56
2023/07/17 06:30:02;;;;;;;11.63;3.40;;;20.00;69.70;;;;;;5054243;28;20841;-56
2023/07/17 06:32:29;;;;;;;7.77;2.60;;;20.10;69.70;;;;;;5055736;28;20480;-57
2023/07/17 06:34:55;;;;;;;3.07;2.53;;;20.10;69.30;;;;;;5054894;28;20649;-57
2023/07/17 06:37:22;;;;;;;5.37;3.40;;;20.10;69.00;;;;;;5054431;28;20449;-55
2023/07/17 06:39:49;;;;;;;5.80;3.23;;;20.10;68.60;;;;;;5054036;28;20993;-55
2023/07/17 06:42:16;;;;;;;2.83;2.53;;;20.10;68.20;;;;;;5054756;28;20440;-56
2023/07/17 06:44:44;;;;;;;5.00;3.20;;;20.20;68.10;;;;;;5054146;28;20460;-56
2023/07/17 06:47:12;;;;;;;3.90;2.50;;;20.30;67.80;;;;;;5054370;28;20498;-57
2023/07/17 06:49:39;;;;;;;4.87;3.00;;;20.40;67.30;;;;;;5053473;28;20925;-56
2023/07/17 06:52:06;;;;;;;4.80;2.43;;;20.50;66.90;;;;;;5053697;28;21007;-57
2023/07/17 06:54:33;;;;;;;4.30;3.00;;;20.50;66.50;;;;;;5053985;28;20444;-57
2023/07/17 06:56:59;;;;;;;3.83;2.30;;;20.60;66.10;;;;;;5053445;28;21013;-56
2023/07/17 06:59:28;;;;;;;3.70;2.73;;;20.60;66.10;;;;;;5053739;28;20468;-57
2023/07/17 07:01:56;;;;;;;3.67;2.60;;;20.60;66.20;;;;;;5054425;28;20451;-57
2023/07/17 07:04:23;;;;;;;3.80;3.00;;;20.70;66.10;;;;;;5053958;28;20984;-56
2023/07/17 07:06:50;;;;;;;5.73;2.67;;;20.80;66.00;;;;;;5053501;28;20452;-56
2023/07/17 07:09:17;;;;;;;5.07;2.30;;;20.90;65.70;;;;;;5053275;28;20456;-57
2023/07/17 07:11:43;;;;;;;4.37;2.50;;;21.00;65.70;;;;;;5053119;28;21012;-58
2023/07/17 07:14:10;;;;;;;3.03;2.50;;;21.10;65.60;;;;;;5059361;28;20448;-56
2023/07/17 07:16:37;;;;;;;3.77;3.07;;;21.20;65.60;;;;;;5053057;28;20952;-56
2023/07/17 07:19:05;;;;;;;4.13;3.17;;;21.20;65.10;;;;;;5053215;28;20917;-58
2023/07/17 07:21:32;;;;;;;3.40;2.47;;;21.30;64.90;;;;;;5053593;28;20476;-55
2023/07/17 07:23:59;;;;;;;3.83;2.60;;;21.30;64.60;;;;;;5053395;28;20440;-56
2023/07/17 07:26:26;;;;;;;5.97;3.10;;;21.40;64.40;;;;;;5053312;28;20452;-56
2023/07/17 07:28:53;;;;;;;4.97;3.20;;;21.40;64.10;;;;;;5053106;28;20455;-58
2023/07/17 07:31:20;;;;;;;3.77;2.87;;;21.50;63.90;;;;;;5052908;28;20468;-57
2023/07/17 07:33:46;;;;;;;3.90;3.10;;;21.60;63.80;;;;;;5053152;28;20452;-57
2023/07/17 07:36:14;;;;;;;4.87;2.50;;;21.70;63.90;;;;;;5053090;28;20433;-58
2023/07/17 07:38:41;;;;;;;4.07;2.87;;;21.80;63.40;;;;;;5054214;28;20455;-58
2023/07/17 07:41:08;;;;;;;3.63;2.43;;;21.90;63.00;;;;;;5053447;28;20551;-58
2023/07/17 07:43:35;;;;;;;4.77;2.20;;;21.90;62.90;;;;;;5053123;28;20447;-58
2023/07/17 07:46:02;;;;;;;3.60;2.70;;;22.00;62.50;;;;;;5052762;28;20451;-57
2023/07/17 07:48:30;;;;;;;4.00;2.57;;;22.00;62.00;;;;;;5053313;28;20520;-58
2023/07/17 07:50:56;;;;;;;3.40;2.60;;;22.00;61.80;;;;;;5052490;28;20905;-57
2023/07/17 07:53:25;;;;;;;4.00;2.43;;;22.10;61.60;;;;;;5052779;28;20456;-57
2023/07/17 07:55:51;;;;;;;2.73;2.20;;;22.20;61.20;;;;;;5052955;28;20448;-57
2023/07/17 07:58:18;;;;;;;3.13;2.50;;;22.30;60.70;;;;;;5053223;28;20448;-57
2023/07/17 08:00:45;;;;;;;4.03;2.03;;;22.50;60.30;;;;;;5053191;28;20461;-58
2023/07/17 08:03:12;;;;;;;2.40;1.90;;;22.60;59.60;;;;;;5052950;28;20449;-58
2023/07/17 08:05:39;;;;;;;3.80;2.40;;;22.60;59.00;;;;;;5053103;28;20445;-58
2023/07/17 08:08:05;;;;;;;4.03;2.23;;;22.70;58.30;;;;;;5053179;28;20451;-57
2023/07/17 08:10:37;;;;;;;4.57;2.30;;;22.90;57.80;;;;;;5052768;28;20464;-58
2023/07/17 08:13:04;;;;;;;3.13;2.20;;;23.10;57.10;;;;;;5052895;28;20843;-57
2023/07/17 08:15:31;;;;;;;3.80;2.10;;;23.20;56.30;;;;;;5053133;28;20510;-58
2023/07/17 08:17:58;;;;;;;3.97;2.60;;;23.40;55.40;;;;;;5053299;28;20448;-58
2023/07/17 08:20:24;;;;;;;3.70;1.90;;;23.60;54.90;;;;;;5053125;28;21012;-57
2023/07/17 08:22:55;;;;;;;4.00;2.17;;;23.70;53.90;;;;;;5053200;28;20451;-57
2023/07/17 08:25:22;;;;;;;3.70;1.83;;;23.80;52.30;;;;;;5053404;28;20511;-56
2023/07/17 08:27:51;;;;;;;3.30;1.87;;;23.60;51.20;;;;;;5052503;28;20459;-56
2023/07/17 08:30:18;;;;;;;2.53;2.00;;;23.40;49.70;;;;;;5052484;28;21012;-58
2023/07/17 08:32:44;;;;;;;2.40;1.93;;;23.20;50.00;;;;;;5053063;28;20583;-57
2023/07/17 08:35:11;;;;;;;5.73;2.50;;;23.20;50.30;;;;;;5052792;28;20448;-58
2023/07/17 08:37:38;;;;;;;3.43;1.90;;;23.30;50.30;;;;;;5053421;28;20444;-57
2023/07/17 08:40:06;;;;;;;3.03;2.33;;;23.30;50.00;;;;;;5052756;28;20487;-57
2023/07/17 08:42:34;;;;;;;2.83;2.00;;;23.50;49.90;;;;;;5052771;28;20498;-58
2023/07/17 08:45:03;;;;;;;3.00;2.20;;;23.60;50.00;;;;;;5052689;28;20448;-57
2023/07/17 08:47:30;;;;;;;3.63;2.10;;;23.70;49.20;;;;;;5052735;28;20444;-59
2023/07/17 08:49:59;;;;;;;3.70;2.17;;;23.90;49.10;;;;;;5052515;28;20503;-58
2023/07/17 08:52:28;;;;;;;4.13;1.90;;;23.90;48.70;;;;;;5052731;28;20488;-57
2023/07/17 08:54:55;;;;;;;4.70;2.70;;;24.10;48.60;;;;;;5053554;28;20459;-58
2023/07/17 08:57:23;;;;;;;4.90;2.27;;;24.30;48.00;;;;;;5054880;28;20448;-56
2023/07/17 08:59:51;;;;;;;2.60;2.20;;;24.40;47.80;;;;;;5057242;28;20464;-57
2023/07/17 09:02:20;;;;;;;4.27;2.30;;;24.40;48.40;;;;;;5056477;28;20449;-57
2023/07/17 09:04:47;;;;;;;4.37;2.07;;;24.50;47.60;;;;;;5057351;28;20470;-57
2023/07/17 09:07:14;;;;;;;4.17;2.37;;;24.50;47.40;;;;;;5055692;28;20928;-57
2023/07/17 09:09:41;;;;;;;4.90;2.23;;;24.30;47.10;;;;;;5056059;28;20471;-56
2023/07/17 09:12:09;;;;;;;3.00;1.97;;;24.10;47.70;;;;;;5056007;28;20571;-57
2023/07/17 09:14:36;;;;;;;3.17;2.13;;;23.90;47.40;;;;;;5056302;28;20467;-58
2023/07/17 09:17:04;;;;;;;3.43;2.37;;;23.70;47.70;;;;;;5055881;28;20972;-57
2023/07/17 09:19:33;;;;;;;6.63;2.73;;;23.60;48.20;;;;;;5055884;28;20496;-57
2023/07/17 09:22:00;;;;;;;3.80;2.10;;;23.60;48.50;;;;;;5056088;28;20515;-58
2023/07/17 09:24:28;;;;;;;2.43;2.00;;;23.60;48.30;;;;;;5055792;28;20451;-58
2023/07/17 09:26:56;;;;;;;2.00;1.80;;;23.80;47.60;;;;;;5055604;28;20440;-58
2023/07/17 09:29:24;;;;;;;3.10;2.30;;;24.00;47.30;;;;;;5055149;28;20887;-57
2023/07/17 09:31:51;;;;;;;3.73;2.17;;;24.20;46.50;;;;;;5054776;28;20602;-56
2023/07/17 09:34:18;;;;;;;3.67;2.37;;;24.20;46.20;;;;;;5055330;28;20445;-58
2023/07/17 09:36:51;;;;;;;2.90;2.00;;;24.20;46.20;;;;;;5055798;28;20518;-58
2023/07/17 09:39:18;;;;;;;4.20;2.53;;;24.30;46.10;;;;;;5055369;28;20421;-57
2023/07/17 09:41:44;;;;;;;2.80;2.40;;;24.40;45.50;;;;;;5055089;28;20956;-58
2023/07/17 09:44:18;;;;;;;3.70;2.30;;;24.60;45.10;;;;;;5054982;28;20932;-57
2023/07/17 09:46:46;;;;;;;3.20;2.03;;;24.70;44.80;;;;;;5054993;28;20421;-58
2023/07/17 09:49:13;;;;;;;4.77;3.10;;;24.70;44.60;;;;;;5054863;28;20451;-58
2023/07/17 09:51:40;;;;;;;3.87;2.53;;;24.70;44.40;;;;;;5054740;28;20989;-59
2023/07/17 09:54:09;;;;;;;4.10;2.33;;;24.60;44.30;;;;;;5055091;28;20455;-58
2023/07/17 09:56:37;;;;;;;6.43;2.40;;;24.30;44.40;;;;;;5055039;28;20453;-59
2023/07/17 09:59:13;;;;;;;3.37;2.20;;;24.10;44.60;;;;;;5054663;28;20968;-59
2023/07/17 10:02:14;;;;;;;5.50;2.50;;;24.10;44.80;;;;;;5055155;28;20444;-56
2023/07/17 10:04:46;;;;;;;3.30;2.50;;;24.00;44.70;;;;;;5051099;28;21040;-57
2023/07/17 10:07:15;;;;;;;4.40;2.53;;;23.90;45.10;;;;;;5054366;28;20441;-58
2023/07/17 10:09:46;;;;;;;2.60;2.20;;;23.80;45.10;;;;;;5054508;28;20468;-58
2023/07/17 10:12:13;;;;;;;2.63;2.20;;;23.80;44.90;;;;;;5054627;28;20468;-58
2023/07/17 10:14:41;;;;;;;2.87;2.23;;;23.80;44.50;;;;;;5061254;28;20440;-59
2023/07/17 10:17:23;;;;;;;3.40;2.43;;;23.90;43.90;;;;;;5054309;28;20946;-58
2023/07/17 10:19:51;;;;;;;3.87;2.83;;;23.90;43.70;;;;;;5054789;28;20825;-56
2023/07/17 10:22:17;;;;;;;4.10;2.20;;;24.10;43.60;;;;;;5054533;28;20441;-59
2023/07/17 10:24:45;;;;;;;3.53;2.70;;;24.30;43.20;;;;;;5054731;28;20455;-56
2023/07/17 10:27:12;;;;;;;5.53;2.80;;;24.70;42.80;;;;;;5056141;28;20475;-56
2023/07/17 10:29:42;;;;;;;5.17;2.73;;;25.10;42.00;;;;;;5054862;28;20487;-57
2023/07/17 10:32:10;;;;;;;5.90;2.73;;;25.50;41.10;;;;;;5054683;28;20480;-57
2023/07/17 10:34:50;;;;;;;5.67;3.20;;;25.70;40.60;;;;;;5055570;28;20445;-57
2023/07/17 10:37:40;;;;;;;3.83;2.70;;;25.60;40.60;;;;;;5056587;28;20451;-57
2023/07/17 10:40:25;;;;;;;9.40;3.30;;;25.50;40.70;;;;;;5055680;28;20865;-58
2023/07/17 10:42:52;;;;;;;5.87;2.93;;;25.20;41.00;;;;;;5055797;28;20421;-58
2023/07/17 10:45:19;;;;;;;4.40;3.10;;;25.10;41.50;;;;;;5054646;28;20448;-58
2023/07/17 10:47:49;;;;;;;3.00;2.43;;;24.90;41.60;;;;;;5054579;28;20448;-58
2023/07/17 10:50:17;;;;;;;3.60;2.70;;;24.90;41.90;;;;;;5054427;28;20476;-58
2023/07/17 10:52:44;;;;;;;4.30;3.00;;;24.70;42.00;;;;;;5054185;28;20484;-58
2023/07/17 10:55:12;;;;;;;5.10;2.90;;;25.00;42.00;;;;;;5054474;28;20445;-58
2023/07/17 10:57:39;;;;;;;3.57;2.20;;;25.20;41.60;;;;;;5054649;28;20452;-58
2023/07/17 11:00:07;;;;;;;3.20;2.60;;;25.40;41.20;;;;;;5054056;28;20465;-56
2023/07/17 11:02:34;;;;;;;3.13;2.77;;;25.60;41.10;;;;;;5054102;28;20441;-57
2023/07/17 11:05:03;;;;;;;4.77;2.97;;;25.90;40.60;;;;;;5054006;28;20452;-58
2023/07/17 11:07:33;;;;;;;3.57;2.60;;;26.30;40.00;;;;;;5053852;28;20487;-57
2023/07/17 11:10:00;;;;;;;4.03;2.57;;;26.70;39.50;;;;;;5053932;28;20475;-57
2023/07/17 11:12:28;;;;;;;4.67;2.80;;;27.00;39.10;;;;;;5053806;28;20476;-57
2023/07/17 11:14:55;;;;;;;5.70;3.07;;;27.10;38.70;;;;;;5054847;28;20452;-59
2023/07/17 11:17:22;;;;;;;5.10;3.30;;;27.10;38.70;;;;;;5054250;28;20455;-58
2023/07/17 11:19:59;;;;;;;4.60;2.33;;;26.80;39.40;;;;;;5053646;28;20468;-57
2023/07/17 11:22:30;;;;;;;4.20;2.60;;;26.50;38.80;;;;;;5054254;28;20432;-58
2023/07/17 11:24:57;;;;;;;4.30;3.17;;;26.20;39.00;;;;;;5054242;28;20436;-58
2023/07/17 11:27:24;;;;;;;5.70;3.47;;;26.00;39.50;;;;;;5056370;28;20444;-58
2023/07/17 11:29:53;;;;;;;4.30;2.60;;;25.90;39.90;;;;;;5057144;28;20494;-59
2023/07/17 11:32:20;;;;;;;4.40;2.87;;;26.00;40.10;;;;;;5055627;28;20561;-59
2023/07/17 11:34:53;;;;;;;4.47;2.90;;;25.90;40.10;;;;;;5056615;28;20441;-58
2023/07/17 11:37:34;;;;;;;10.93;3.87;;;25.60;40.20;;;;;;5055271;28;20439;-58
2023/07/17 11:40:04;;;;;;;4.97;3.40;;;25.50;40.50;;;;;;5054854;28;20469;-58
2023/07/17 11:42:52;;;;;;;3.97;2.80;;;25.60;40.50;;;;;;5054590;28;20436;-59
2023/07/17 11:45:23;;;;;;;4.10;3.00;;;25.70;40.30;;;;;;5053864;28;20428;-60
2023/07/17 11:47:51;;;;;;;3.40;2.97;;;25.80;40.20;;;;;;5053922;28;20444;-58
2023/07/17 11:50:20;;;;;;;4.40;3.40;;;25.70;40.40;;;;;;5053267;28;20488;-57
2023/07/17 11:52:47;;;;;;;5.50;3.20;;;25.80;40.10;;;;;;5053438;28;20485;-59
2023/07/17 11:55:14;;;;;;;8.17;3.00;;;25.70;40.10;;;;;;5053526;28;20452;-59
2023/07/17 11:57:49;;;;;;;6.33;3.63;;;25.70;41.00;;;;;;5054429;28;20535;-57
2023/07/17 12:00:17;;;;;;;4.20;3.47;;;25.60;40.40;;;;;;5053813;28;20490;-58
2023/07/17 12:02:46;;;;;;;4.67;3.50;;;25.60;40.50;;;;;;5053520;28;20444;-56
2023/07/17 12:05:13;;;;;;;6.43;3.97;;;25.90;40.30;;;;;;5053112;28;20444;-58
2023/07/17 12:07:40;;;;;;;5.47;3.80;;;26.30;39.50;;;;;;5054276;28;20460;-59
2023/07/17 12:10:08;;;;;;;4.67;3.13;;;26.30;39.20;;;;;;5053354;28;20457;-58
2023/07/17 12:12:35;;;;;;;4.80;3.77;;;25.90;39.30;;;;;;5053353;28;21011;-57
2023/07/17 12:15:02;;;;;;;5.77;3.43;;;25.60;39.60;;;;;;5052815;28;20480;-58
2023/07/17 12:17:29;;;;;;;5.53;3.70;;;25.30;39.90;;;;;;5052793;28;20455;-58
2023/07/17 12:19:57;;;;;;;4.10;2.80;;;25.00;39.90;;;;;;5052637;28;20475;-58
2023/07/17 12:22:24;;;;;;;9.60;3.50;;;25.10;39.80;;;;;;5052731;28;20942;-56
2023/07/17 12:24:51;;;;;;;5.80;3.20;;;25.30;39.30;;;;;;5052558;28;20455;-58
2023/07/17 12:27:18;;;;;;;5.20;3.10;;;25.30;39.40;;;;;;5052751;28;20539;-57
2023/07/17 12:29:44;;;;;;;5.60;3.20;;;25.60;39.00;;;;;;5052688;28;20468;-59
2023/07/17 12:32:11;;;;;;;4.30;3.40;;;25.90;38.30;;;;;;5053854;28;20456;-57
2023/07/17 12:34:38;;;;;;;4.67;2.47;;;25.90;37.40;;;;;;5056722;28;20463;-59
2023/07/17 12:37:06;;;;;;;5.53;3.40;;;25.50;37.40;;;;;;5059911;28;20444;-59
2023/07/17 12:39:33;;;;;;;3.90;2.73;;;25.30;37.80;;;;;;5056579;28;20480;-57
2023/07/17 12:42:00;;;;;;;4.10;2.77;;;25.40;37.90;;;;;;5057457;28;20444;-59
2023/07/17 12:44:29;;;;;;;4.40;3.23;;;25.40;37.50;;;;;;5058596;28;20440;-58
2023/07/17 12:46:56;;;;;;;7.00;3.63;;;25.20;38.00;;;;;;5057693;28;20449;-57
2023/07/17 12:49:22;;;;;;;4.10;3.00;;;25.00;38.40;;;;;;5056875;28;20475;-58